Terminal Aerodrome Forecast
Issued by NWS

Home | Current Version | Previous Version | Text Only | Print | Product List | Glossary On
Versions: 1 2 3 4 5 6 7 8 9 10 11 12 13 14 15
000
FTUS42 TJSJ 231700
TAFISX
TAF
TISX 231739Z 2318/2418 11012KT P6SM SCT025 SCT040
     FM232300 09009KT P6SM FEW030
     FM240600 07005KT P6SM VCSH SCT022 SCT040
     FM241330 11012KT P6SM SCT030 SCT050=

USA.gov is the U.S. government's official web portal to all federal, state and local government web resources and services.